sensor_id;sensor_type;location;lat;lon;timestamp;P1;durP1;ratioP1;P2;durP2;ratioP2
50309;SDS011;36207;51.850;21.698;2023-06-24T00:01:29;8.80;;;4.70;;
50309;SDS011;36207;51.850;21.698;2023-06-24T00:03:57;6.70;;;4.60;;
50309;SDS011;36207;51.850;21.698;2023-06-24T00:06:23;6.10;;;4.40;;
50309;SDS011;36207;51.850;21.698;2023-06-24T00:08:52;6.70;;;4.50;;
50309;SDS011;36207;51.850;21.698;2023-06-24T00:11:29;6.60;;;4.60;;
50309;SDS011;36207;51.850;21.698;2023-06-24T00:13:55;7.70;;;4.90;;
50309;SDS011;36207;51.850;21.698;2023-06-24T00:16:22;6.20;;;4.50;;
50309;SDS011;36207;51.850;21.698;2023-06-24T00:18:51;7.30;;;4.70;;
50309;SDS011;36207;51.850;21.698;2023-06-24T00:21:18;6.50;;;4.60;;
50309;SDS011;36207;51.850;21.698;2023-06-24T00:23:45;8.10;;;4.80;;
50309;SDS011;36207;51.850;21.698;2023-06-24T00:26:15;7.60;;;4.70;;
50309;SDS011;36207;51.850;21.698;2023-06-24T00:28:42;5.60;;;4.50;;
50309;SDS011;36207;51.850;21.698;2023-06-24T00:31:08;7.00;;;4.70;;
50309;SDS011;36207;51.850;21.698;2023-06-24T00:33:36;6.50;;;4.60;;
50309;SDS011;36207;51.850;21.698;2023-06-24T00:36:03;10.60;;;4.80;;
50309;SDS011;36207;51.850;21.698;2023-06-24T00:38:29;6.90;;;4.60;;
50309;SDS011;36207;51.850;21.698;2023-06-24T00:40:58;9.00;;;4.70;;
50309;SDS011;36207;51.850;21.698;2023-06-24T00:43:24;6.40;;;4.70;;
50309;SDS011;36207;51.850;21.698;2023-06-24T00:45:50;7.00;;;4.80;;
50309;SDS011;36207;51.850;21.698;2023-06-24T00:48:18;6.60;;;4.40;;
50309;SDS011;36207;51.850;21.698;2023-06-24T00:50:47;7.70;;;4.70;;
50309;SDS011;36207;51.850;21.698;2023-06-24T00:53:15;6.70;;;4.90;;
50309;SDS011;36207;51.850;21.698;2023-06-24T00:55:42;8.20;;;4.70;;
50309;SDS011;36207;51.850;21.698;2023-06-24T00:58:08;5.80;;;4.80;;
50309;SDS011;36207;51.850;21.698;2023-06-24T01:00:35;8.10;;;5.10;;
50309;SDS011;36207;51.850;21.698;2023-06-24T01:03:01;6.90;;;4.90;;
50309;SDS011;36207;51.850;21.698;2023-06-24T01:05:28;6.70;;;4.80;;
50309;SDS011;36207;51.850;21.698;2023-06-24T01:08:00;7.50;;;4.90;;
50309;SDS011;36207;51.850;21.698;2023-06-24T01:10:28;7.00;;;5.10;;
50309;SDS011;36207;51.850;21.698;2023-06-24T01:12:54;6.80;;;4.80;;
50309;SDS011;36207;51.850;21.698;2023-06-24T01:15:20;7.40;;;5.00;;
50309;SDS011;36207;51.850;21.698;2023-06-24T01:18:07;8.50;;;5.30;;
50309;SDS011;36207;51.850;21.698;2023-06-24T01:20:52;6.40;;;5.10;;
50309;SDS011;36207;51.850;21.698;2023-06-24T01:40:34;6.80;;;4.80;;
50309;SDS011;36207;51.850;21.698;2023-06-24T01:42:46;7.10;;;5.10;;
50309;SDS011;36207;51.850;21.698;2023-06-24T01:45:15;7.20;;;5.20;;
50309;SDS011;36207;51.850;21.698;2023-06-24T01:47:45;7.90;;;4.90;;
50309;SDS011;36207;51.850;21.698;2023-06-24T01:50:14;7.10;;;5.00;;
50309;SDS011;36207;51.850;21.698;2023-06-24T01:52:45;7.30;;;5.30;;
50309;SDS011;36207;51.850;21.698;2023-06-24T01:55:12;7.00;;;4.90;;
50309;SDS011;36207;51.850;21.698;2023-06-24T01:57:43;7.10;;;5.10;;
50309;SDS011;36207;51.850;21.698;2023-06-24T02:00:12;6.90;;;5.10;;
50309;SDS011;36207;51.850;21.698;2023-06-24T02:02:39;10.60;;;5.60;;
50309;SDS011;36207;51.850;21.698;2023-06-24T02:05:07;7.20;;;5.10;;
50309;SDS011;36207;51.850;21.698;2023-06-24T02:07:34;7.10;;;5.30;;
50309;SDS011;36207;51.850;21.698;2023-06-24T02:10:02;8.00;;;5.50;;
50309;SDS011;36207;51.850;21.698;2023-06-24T02:12:29;8.20;;;5.30;;
50309;SDS011;36207;51.850;21.698;2023-06-24T02:14:56;7.80;;;5.00;;
50309;SDS011;36207;51.850;21.698;2023-06-24T02:17:25;8.00;;;5.70;;
50309;SDS011;36207;51.850;21.698;2023-06-24T02:19:55;7.70;;;5.20;;
50309;SDS011;36207;51.850;21.698;2023-06-24T02:22:22;8.70;;;5.30;;
50309;SDS011;36207;51.850;21.698;2023-06-24T02:24:49;7.20;;;5.20;;
50309;SDS011;36207;51.850;21.698;2023-06-24T02:27:16;6.90;;;5.00;;
50309;SDS011;36207;51.850;21.698;2023-06-24T02:29:43;7.60;;;5.20;;
50309;SDS011;36207;51.850;21.698;2023-06-24T02:32:10;6.80;;;5.20;;
50309;SDS011;36207;51.850;21.698;2023-06-24T02:34:36;6.90;;;5.20;;
50309;SDS011;36207;51.850;21.698;2023-06-24T02:37:02;6.80;;;5.10;;
50309;SDS011;36207;51.850;21.698;2023-06-24T02:39:28;7.30;;;5.10;;
50309;SDS011;36207;51.850;21.698;2023-06-24T02:41:54;8.00;;;5.10;;
50309;SDS011;36207;51.850;21.698;2023-06-24T02:44:20;6.50;;;5.10;;
50309;SDS011;36207;51.850;21.698;2023-06-24T02:46:46;8.40;;;5.40;;
50309;SDS011;36207;51.850;21.698;2023-06-24T02:49:15;9.30;;;5.00;;
50309;SDS011;36207;51.850;21.698;2023-06-24T02:51:43;8.90;;;5.30;;
50309;SDS011;36207;51.850;21.698;2023-06-24T02:54:10;8.30;;;5.20;;
50309;SDS011;36207;51.850;21.698;2023-06-24T02:56:38;9.40;;;5.30;;
50309;SDS011;36207;51.850;21.698;2023-06-24T02:59:07;8.00;;;5.50;;
50309;SDS011;36207;51.850;21.698;2023-06-24T03:01:34;8.00;;;5.40;;
50309;SDS011;36207;51.850;21.698;2023-06-24T03:04:10;7.20;;;5.40;;
50309;SDS011;36207;51.850;21.698;2023-06-24T03:06:37;8.90;;;5.40;;
50309;SDS011;36207;51.850;21.698;2023-06-24T03:09:05;8.20;;;5.70;;
50309;SDS011;36207;51.850;21.698;2023-06-24T03:11:39;7.40;;;5.10;;
50309;SDS011;36207;51.850;21.698;2023-06-24T03:14:12;8.30;;;5.50;;
50309;SDS011;36207;51.850;21.698;2023-06-24T03:16:38;7.90;;;5.60;;
50309;SDS011;36207;51.850;21.698;2023-06-24T03:19:04;8.40;;;6.10;;
50309;SDS011;36207;51.850;21.698;2023-06-24T03:21:31;8.20;;;5.80;;
50309;SDS011;36207;51.850;21.698;2023-06-24T03:23:57;9.70;;;5.60;;
50309;SDS011;36207;51.850;21.698;2023-06-24T03:26:25;8.10;;;5.80;;
50309;SDS011;36207;51.850;21.698;2023-06-24T03:31:34;8.40;;;5.40;;
50309;SDS011;36207;51.850;21.698;2023-06-24T03:34:00;9.90;;;5.80;;
50309;SDS011;36207;51.850;21.698;2023-06-24T03:36:26;7.40;;;5.50;;
50309;SDS011;36207;51.850;21.698;2023-06-24T03:38:52;9.10;;;6.20;;
50309;SDS011;36207;51.850;21.698;2023-06-24T03:41:18;8.50;;;5.90;;
50309;SDS011;36207;51.850;21.698;2023-06-24T03:43:44;8.60;;;6.00;;
50309;SDS011;36207;51.850;21.698;2023-06-24T03:46:11;9.30;;;6.10;;
50309;SDS011;36207;51.850;21.698;2023-06-24T03:48:37;9.20;;;6.00;;
50309;SDS011;36207;51.850;21.698;2023-06-24T03:51:03;8.00;;;6.10;;
50309;SDS011;36207;51.850;21.698;2023-06-24T03:53:29;8.30;;;6.40;;
50309;SDS011;36207;51.850;21.698;2023-06-24T03:55:55;8.30;;;6.10;;
50309;SDS011;36207;51.850;21.698;2023-06-24T03:58:21;7.90;;;6.20;;
50309;SDS011;36207;51.850;21.698;2023-06-24T04:00:47;10.60;;;6.30;;
50309;SDS011;36207;51.850;21.698;2023-06-24T04:03:15;8.10;;;6.10;;
50309;SDS011;36207;51.850;21.698;2023-06-24T04:05:44;8.70;;;6.10;;
50309;SDS011;36207;51.850;21.698;2023-06-24T04:08:10;10.80;;;5.90;;
50309;SDS011;36207;51.850;21.698;2023-06-24T04:10:37;7.90;;;5.90;;
50309;SDS011;36207;51.850;21.698;2023-06-24T04:13:03;8.40;;;6.00;;
50309;SDS011;36207;51.850;21.698;2023-06-24T04:15:29;11.60;;;6.30;;
50309;SDS011;36207;51.850;21.698;2023-06-24T04:17:55;11.30;;;6.40;;
50309;SDS011;36207;51.850;21.698;2023-06-24T04:20:21;11.00;;;6.50;;
50309;SDS011;36207;51.850;21.698;2023-06-24T04:22:47;8.20;;;6.10;;
50309;SDS011;36207;51.850;21.698;2023-06-24T04:25:13;10.10;;;6.20;;
50309;SDS011;36207;51.850;21.698;2023-06-24T04:27:39;8.60;;;6.30;;
50309;SDS011;36207;51.850;21.698;2023-06-24T04:30:05;9.10;;;6.30;;
50309;SDS011;36207;51.850;21.698;2023-06-24T04:32:32;7.30;;;5.90;;
50309;SDS011;36207;51.850;21.698;2023-06-24T04:34:59;9.80;;;6.00;;
50309;SDS011;36207;51.850;21.698;2023-06-24T04:37:26;7.80;;;5.70;;
50309;SDS011;36207;51.850;21.698;2023-06-24T04:39:52;9.80;;;6.70;;
50309;SDS011;36207;51.850;21.698;2023-06-24T04:42:18;8.80;;;6.40;;
50309;SDS011;36207;51.850;21.698;2023-06-24T04:44:44;10.00;;;6.10;;
50309;SDS011;36207;51.850;21.698;2023-06-24T04:47:10;8.70;;;6.10;;
50309;SDS011;36207;51.850;21.698;2023-06-24T04:49:39;8.30;;;6.20;;
50309;SDS011;36207;51.850;21.698;2023-06-24T04:52:05;8.70;;;6.40;;
50309;SDS011;36207;51.850;21.698;2023-06-24T04:54:32;9.30;;;6.30;;
50309;SDS011;36207;51.850;21.698;2023-06-24T04:56:58;9.60;;;6.50;;
50309;SDS011;36207;51.850;21.698;2023-06-24T04:59:24;8.20;;;6.30;;
50309;SDS011;36207;51.850;21.698;2023-06-24T05:01:50;9.30;;;6.50;;
50309;SDS011;36207;51.850;21.698;2023-06-24T05:04:16;11.60;;;6.30;;
50309;SDS011;36207;51.850;21.698;2023-06-24T05:06:42;8.00;;;6.10;;
50309;SDS011;36207;51.850;21.698;2023-06-24T05:09:08;9.70;;;6.70;;
50309;SDS011;36207;51.850;21.698;2023-06-24T05:11:39;11.50;;;6.60;;
50309;SDS011;36207;51.850;21.698;2023-06-24T05:14:06;9.80;;;6.20;;
50309;SDS011;36207;51.850;21.698;2023-06-24T05:16:33;8.90;;;6.20;;
50309;SDS011;36207;51.850;21.698;2023-06-24T05:18:59;10.90;;;6.20;;
50309;SDS011;36207;51.850;21.698;2023-06-24T05:21:25;10.90;;;6.30;;
50309;SDS011;36207;51.850;21.698;2023-06-24T05:23:51;11.90;;;6.10;;
50309;SDS011;36207;51.850;21.698;2023-06-24T05:26:17;9.30;;;6.50;;
50309;SDS011;36207;51.850;21.698;2023-06-24T05:28:43;9.00;;;6.50;;
50309;SDS011;36207;51.850;21.698;2023-06-24T05:31:09;7.90;;;6.20;;
50309;SDS011;36207;51.850;21.698;2023-06-24T05:33:35;8.50;;;6.20;;
50309;SDS011;36207;51.850;21.698;2023-06-24T05:36:01;9.00;;;6.50;;
50309;SDS011;36207;51.850;21.698;2023-06-24T05:38:27;9.60;;;6.70;;
50309;SDS011;36207;51.850;21.698;2023-06-24T05:40:53;11.10;;;6.40;;
50309;SDS011;36207;51.850;21.698;2023-06-24T05:43:19;10.40;;;6.30;;
50309;SDS011;36207;51.850;21.698;2023-06-24T05:45:45;10.00;;;6.40;;
50309;SDS011;36207;51.850;21.698;2023-06-24T05:48:11;8.70;;;6.40;;
50309;SDS011;36207;51.850;21.698;2023-06-24T05:50:37;9.20;;;6.00;;
50309;SDS011;36207;51.850;21.698;2023-06-24T05:53:03;9.50;;;6.10;;
50309;SDS011;36207;51.850;21.698;2023-06-24T05:55:29;10.20;;;5.90;;
50309;SDS011;36207;51.850;21.698;2023-06-24T05:57:55;10.20;;;6.40;;
50309;SDS011;36207;51.850;21.698;2023-06-24T06:00:21;9.50;;;6.50;;
50309;SDS011;36207;51.850;21.698;2023-06-24T06:02:47;9.10;;;6.60;;
50309;SDS011;36207;51.850;21.698;2023-06-24T06:05:13;12.30;;;6.20;;
50309;SDS011;36207;51.850;21.698;2023-06-24T06:07:39;8.40;;;5.90;;
50309;SDS011;36207;51.850;21.698;2023-06-24T06:10:05;8.00;;;6.10;;
50309;SDS011;36207;51.850;21.698;2023-06-24T06:12:32;10.00;;;6.30;;
50309;SDS011;36207;51.850;21.698;2023-06-24T06:14:58;10.60;;;6.20;;
50309;SDS011;36207;51.850;21.698;2023-06-24T06:17:24;9.40;;;6.40;;
50309;SDS011;36207;51.850;21.698;2023-06-24T06:19:50;9.10;;;6.10;;
50309;SDS011;36207;51.850;21.698;2023-06-24T06:22:16;8.00;;;6.30;;
50309;SDS011;36207;51.850;21.698;2023-06-24T06:24:43;9.50;;;6.20;;
50309;SDS011;36207;51.850;21.698;2023-06-24T06:27:09;8.60;;;6.30;;
50309;SDS011;36207;51.850;21.698;2023-06-24T06:29:39;10.30;;;6.50;;
50309;SDS011;36207;51.850;21.698;2023-06-24T06:32:06;9.70;;;6.20;;
50309;SDS011;36207;51.850;21.698;2023-06-24T06:34:32;8.40;;;6.20;;
50309;SDS011;36207;51.850;21.698;2023-06-24T06:36:58;11.50;;;6.20;;
50309;SDS011;36207;51.850;21.698;2023-06-24T06:39:24;12.20;;;6.20;;
50309;SDS011;36207;51.850;21.698;2023-06-24T06:41:50;10.20;;;6.00;;
50309;SDS011;36207;51.850;21.698;2023-06-24T06:44:16;10.50;;;6.00;;
50309;SDS011;36207;51.850;21.698;2023-06-24T06:46:42;9.60;;;6.00;;
50309;SDS011;36207;51.850;21.698;2023-06-24T06:49:08;9.90;;;6.00;;
50309;SDS011;36207;51.850;21.698;2023-06-24T06:51:34;9.70;;;6.00;;
50309;SDS011;36207;51.850;21.698;2023-06-24T06:54:02;8.80;;;6.20;;
50309;SDS011;36207;51.850;21.698;2023-06-24T06:56:28;8.30;;;5.70;;
50309;SDS011;36207;51.850;21.698;2023-06-24T06:58:54;11.00;;;5.80;;
50309;SDS011;36207;51.850;21.698;2023-06-24T07:01:20;8.30;;;6.30;;
50309;SDS011;36207;51.850;21.698;2023-06-24T07:03:46;10.30;;;6.10;;
50309;SDS011;36207;51.850;21.698;2023-06-24T07:06:14;9.40;;;6.20;;
50309;SDS011;36207;51.850;21.698;2023-06-24T07:08:40;11.20;;;6.10;;
50309;SDS011;36207;51.850;21.698;2023-06-24T07:11:06;7.60;;;5.90;;
50309;SDS011;36207;51.850;21.698;2023-06-24T07:13:32;8.20;;;6.30;;
50309;SDS011;36207;51.850;21.698;2023-06-24T07:15:58;9.50;;;6.40;;
50309;SDS011;36207;51.850;21.698;2023-06-24T07:18:24;7.70;;;6.00;;
50309;SDS011;36207;51.850;21.698;2023-06-24T07:20:52;10.40;;;5.90;;
50309;SDS011;36207;51.850;21.698;2023-06-24T07:23:19;7.90;;;5.60;;
50309;SDS011;36207;51.850;21.698;2023-06-24T07:25:45;7.80;;;5.90;;
50309;SDS011;36207;51.850;21.698;2023-06-24T07:28:11;11.30;;;6.10;;
50309;SDS011;36207;51.850;21.698;2023-06-24T07:30:38;10.70;;;6.10;;
50309;SDS011;36207;51.850;21.698;2023-06-24T07:33:04;8.40;;;6.10;;
50309;SDS011;36207;51.850;21.698;2023-06-24T07:35:31;8.10;;;6.00;;
50309;SDS011;36207;51.850;21.698;2023-06-24T07:37:58;10.40;;;6.40;;
50309;SDS011;36207;51.850;21.698;2023-06-24T07:40:24;11.00;;;6.40;;
50309;SDS011;36207;51.850;21.698;2023-06-24T07:42:50;10.10;;;5.80;;
50309;SDS011;36207;51.850;21.698;2023-06-24T07:45:17;8.70;;;5.80;;
50309;SDS011;36207;51.850;21.698;2023-06-24T07:47:42;9.40;;;5.90;;
50309;SDS011;36207;51.850;21.698;2023-06-24T07:50:08;9.10;;;5.40;;
50309;SDS011;36207;51.850;21.698;2023-06-24T07:52:39;6.30;;;4.90;;
50309;SDS011;36207;51.850;21.698;2023-06-24T07:55:05;7.40;;;4.80;;
50309;SDS011;36207;51.850;21.698;2023-06-24T07:57:31;6.10;;;4.70;;
50309;SDS011;36207;51.850;21.698;2023-06-24T07:59:57;7.70;;;4.60;;
50309;SDS011;36207;51.850;21.698;2023-06-24T08:02:23;8.20;;;4.80;;
50309;SDS011;36207;51.850;21.698;2023-06-24T08:04:52;6.00;;;4.30;;
50309;SDS011;36207;51.850;21.698;2023-06-24T08:07:18;6.20;;;4.50;;
50309;SDS011;36207;51.850;21.698;2023-06-24T08:09:44;7.10;;;4.70;;
50309;SDS011;36207;51.850;21.698;2023-06-24T08:12:10;6.40;;;4.60;;
50309;SDS011;36207;51.850;21.698;2023-06-24T08:14:36;7.00;;;4.40;;
50309;SDS011;36207;51.850;21.698;2023-06-24T08:17:02;5.90;;;4.50;;
50309;SDS011;36207;51.850;21.698;2023-06-24T08:19:29;6.50;;;4.20;;
50309;SDS011;36207;51.850;21.698;2023-06-24T08:21:55;8.60;;;4.50;;
50309;SDS011;36207;51.850;21.698;2023-06-24T08:24:21;5.70;;;4.30;;
50309;SDS011;36207;51.850;21.698;2023-06-24T08:26:47;6.90;;;4.50;;
50309;SDS011;36207;51.850;21.698;2023-06-24T08:29:13;7.60;;;4.60;;
50309;SDS011;36207;51.850;21.698;2023-06-24T08:31:39;7.60;;;4.60;;
50309;SDS011;36207;51.850;21.698;2023-06-24T08:34:05;5.60;;;4.40;;
50309;SDS011;36207;51.850;21.698;2023-06-24T08:36:34;7.70;;;4.40;;
50309;SDS011;36207;51.850;21.698;2023-06-24T08:39:01;8.20;;;4.80;;
50309;SDS011;36207;51.850;21.698;2023-06-24T08:41:28;6.40;;;4.50;;
50309;SDS011;36207;51.850;21.698;2023-06-24T08:43:54;7.30;;;4.60;;
50309;SDS011;36207;51.850;21.698;2023-06-24T08:46:20;7.40;;;4.40;;
50309;SDS011;36207;51.850;21.698;2023-06-24T08:48:50;6.70;;;4.80;;
50309;SDS011;36207;51.850;21.698;2023-06-24T08:51:25;7.60;;;4.90;;
50309;SDS011;36207;51.850;21.698;2023-06-24T08:53:53;5.70;;;4.40;;
50309;SDS011;36207;51.850;21.698;2023-06-24T08:56:19;7.30;;;4.40;;
50309;SDS011;36207;51.850;21.698;2023-06-24T08:58:45;6.70;;;4.40;;
50309;SDS011;36207;51.850;21.698;2023-06-24T09:01:11;9.20;;;4.50;;
50309;SDS011;36207;51.850;21.698;2023-06-24T09:03:38;7.30;;;4.50;;
50309;SDS011;36207;51.850;21.698;2023-06-24T09:06:04;7.10;;;4.70;;
50309;SDS011;36207;51.850;21.698;2023-06-24T09:08:30;6.20;;;4.40;;
50309;SDS011;36207;51.850;21.698;2023-06-24T09:10:57;7.20;;;4.40;;
50309;SDS011;36207;51.850;21.698;2023-06-24T09:13:35;7.30;;;4.30;;
50309;SDS011;36207;51.850;21.698;2023-06-24T09:16:13;5.40;;;4.10;;
50309;SDS011;36207;51.850;21.698;2023-06-24T09:18:40;7.00;;;4.50;;
50309;SDS011;36207;51.850;21.698;2023-06-24T09:21:07;6.10;;;4.00;;
50309;SDS011;36207;51.850;21.698;2023-06-24T09:23:39;5.80;;;4.10;;
50309;SDS011;36207;51.850;21.698;2023-06-24T09:26:09;4.90;;;3.90;;
50309;SDS011;36207;51.850;21.698;2023-06-24T09:28:36;4.90;;;3.80;;
50309;SDS011;36207;51.850;21.698;2023-06-24T09:33:32;5.00;;;3.90;;
50309;SDS011;36207;51.850;21.698;2023-06-24T09:36:02;5.40;;;4.10;;
50309;SDS011;36207;51.850;21.698;2023-06-24T09:38:36;6.00;;;4.10;;
50309;SDS011;36207;51.850;21.698;2023-06-24T09:41:03;7.00;;;4.30;;
50309;SDS011;36207;51.850;21.698;2023-06-24T09:43:30;5.90;;;4.20;;
50309;SDS011;36207;51.850;21.698;2023-06-24T09:46:00;6.10;;;4.20;;
50309;SDS011;36207;51.850;21.698;2023-06-24T09:48:27;6.60;;;4.20;;
50309;SDS011;36207;51.850;21.698;2023-06-24T09:50:58;5.70;;;4.00;;
50309;SDS011;36207;51.850;21.698;2023-06-24T09:53:30;8.20;;;4.30;;
50309;SDS011;36207;51.850;21.698;2023-06-24T09:56:01;8.20;;;4.40;;
50309;SDS011;36207;51.850;21.698;2023-06-24T09:58:32;9.70;;;4.20;;
50309;SDS011;36207;51.850;21.698;2023-06-24T10:01:02;5.90;;;4.10;;
50309;SDS011;36207;51.850;21.698;2023-06-24T10:03:32;5.50;;;4.00;;
50309;SDS011;36207;51.850;21.698;2023-06-24T10:06:04;5.50;;;4.30;;
50309;SDS011;36207;51.850;21.698;2023-06-24T10:08:31;7.00;;;4.10;;
50309;SDS011;36207;51.850;21.698;2023-06-24T10:11:01;8.10;;;4.70;;
50309;SDS011;36207;51.850;21.698;2023-06-24T10:13:27;6.60;;;4.40;;
50309;SDS011;36207;51.850;21.698;2023-06-24T10:15:55;6.20;;;4.60;;
50309;SDS011;36207;51.850;21.698;2023-06-24T10:20:57;7.10;;;4.70;;
50309;SDS011;36207;51.850;21.698;2023-06-24T10:23:31;8.20;;;4.60;;
50309;SDS011;36207;51.850;21.698;2023-06-24T10:25:57;7.70;;;4.40;;
50309;SDS011;36207;51.850;21.698;2023-06-24T10:28:23;5.60;;;4.20;;
50309;SDS011;36207;51.850;21.698;2023-06-24T10:30:55;7.50;;;4.60;;
50309;SDS011;36207;51.850;21.698;2023-06-24T10:33:23;6.90;;;4.80;;
50309;SDS011;36207;51.850;21.698;2023-06-24T10:35:50;6.60;;;4.50;;
50309;SDS011;36207;51.850;21.698;2023-06-24T10:38:17;6.90;;;4.50;;
50309;SDS011;36207;51.850;21.698;2023-06-24T10:40:43;6.90;;;4.50;;
50309;SDS011;36207;51.850;21.698;2023-06-24T10:43:28;8.70;;;4.60;;
50309;SDS011;36207;51.850;21.698;2023-06-24T10:45:57;7.60;;;4.40;;
50309;SDS011;36207;51.850;21.698;2023-06-24T10:48:24;6.20;;;4.60;;
50309;SDS011;36207;51.850;21.698;2023-06-24T10:50:51;6.40;;;4.70;;
50309;SDS011;36207;51.850;21.698;2023-06-24T10:53:17;6.80;;;4.80;;
50309;SDS011;36207;51.850;21.698;2023-06-24T10:55:46;8.00;;;4.60;;
50309;SDS011;36207;51.850;21.698;2023-06-24T10:58:14;6.50;;;4.80;;
50309;SDS011;36207;51.850;21.698;2023-06-24T11:00:41;8.30;;;4.60;;
50309;SDS011;36207;51.850;21.698;2023-06-24T11:03:09;6.90;;;4.80;;
50309;SDS011;36207;51.850;21.698;2023-06-24T11:05:38;8.20;;;4.60;;
50309;SDS011;36207;51.850;21.698;2023-06-24T11:08:05;6.10;;;4.40;;
50309;SDS011;36207;51.850;21.698;2023-06-24T11:10:32;6.40;;;4.70;;
50309;SDS011;36207;51.850;21.698;2023-06-24T11:13:04;7.60;;;4.50;;
50309;SDS011;36207;51.850;21.698;2023-06-24T11:15:32;8.30;;;4.50;;
50309;SDS011;36207;51.850;21.698;2023-06-24T11:18:01;7.90;;;4.50;;
50309;SDS011;36207;51.850;21.698;2023-06-24T11:20:31;8.40;;;4.60;;
50309;SDS011;36207;51.850;21.698;2023-06-24T11:22:56;8.80;;;4.70;;
50309;SDS011;36207;51.850;21.698;2023-06-24T11:25:23;5.50;;;4.20;;
50309;SDS011;36207;51.850;21.698;2023-06-24T11:27:51;7.10;;;4.40;;
50309;SDS011;36207;51.850;21.698;2023-06-24T11:30:19;7.60;;;4.40;;
50309;SDS011;36207;51.850;21.698;2023-06-24T11:32:45;8.20;;;4.30;;
50309;SDS011;36207;51.850;21.698;2023-06-24T11:35:12;7.10;;;4.50;;
50309;SDS011;36207;51.850;21.698;2023-06-24T11:37:41;5.70;;;4.40;;
50309;SDS011;36207;51.850;21.698;2023-06-24T11:40:11;5.90;;;4.30;;
50309;SDS011;36207;51.850;21.698;2023-06-24T11:42:39;7.60;;;4.50;;
50309;SDS011;36207;51.850;21.698;2023-06-24T11:45:07;7.40;;;4.30;;
50309;SDS011;36207;51.850;21.698;2023-06-24T11:47:35;7.50;;;4.50;;
50309;SDS011;36207;51.850;21.698;2023-06-24T11:50:03;10.10;;;4.70;;
50309;SDS011;36207;51.850;21.698;2023-06-24T11:52:41;8.20;;;4.60;;
50309;SDS011;36207;51.850;21.698;2023-06-24T11:55:19;7.10;;;4.70;;
50309;SDS011;36207;51.850;21.698;2023-06-24T11:57:57;6.90;;;4.80;;
50309;SDS011;36207;51.850;21.698;2023-06-24T12:00:31;9.60;;;5.10;;
50309;SDS011;36207;51.850;21.698;2023-06-24T12:03:04;8.80;;;4.70;;
50309;SDS011;36207;51.850;21.698;2023-06-24T12:05:35;7.00;;;4.80;;
50309;SDS011;36207;51.850;21.698;2023-06-24T12:08:02;8.20;;;5.10;;
50309;SDS011;36207;51.850;21.698;2023-06-24T12:10:33;8.00;;;4.70;;
50309;SDS011;36207;51.850;21.698;2023-06-24T12:13:00;8.40;;;4.80;;
50309;SDS011;36207;51.850;21.698;2023-06-24T12:15:27;6.60;;;4.80;;
50309;SDS011;36207;51.850;21.698;2023-06-24T12:17:54;8.00;;;4.90;;
50309;SDS011;36207;51.850;21.698;2023-06-24T12:20:20;8.70;;;5.20;;
50309;SDS011;36207;51.850;21.698;2023-06-24T12:22:47;7.30;;;4.80;;
50309;SDS011;36207;51.850;21.698;2023-06-24T12:25:14;6.50;;;4.70;;
50309;SDS011;36207;51.850;21.698;2023-06-24T12:27:41;10.40;;;5.10;;
50309;SDS011;36207;51.850;21.698;2023-06-24T12:30:09;7.40;;;4.90;;
50309;SDS011;36207;51.850;21.698;2023-06-24T12:32:36;8.50;;;5.10;;
50309;SDS011;36207;51.850;21.698;2023-06-24T12:35:02;9.60;;;4.90;;
50309;SDS011;36207;51.850;21.698;2023-06-24T12:37:32;6.30;;;5.10;;
50309;SDS011;36207;51.850;21.698;2023-06-24T12:40:01;7.60;;;5.40;;
50309;SDS011;36207;51.850;21.698;2023-06-24T12:42:28;8.50;;;5.20;;
50309;SDS011;36207;51.850;21.698;2023-06-24T12:44:54;9.20;;;5.70;;
50309;SDS011;36207;51.850;21.698;2023-06-24T12:47:21;8.20;;;5.30;;
50309;SDS011;36207;51.850;21.698;2023-06-24T12:49:48;10.60;;;5.30;;
50309;SDS011;36207;51.850;21.698;2023-06-24T12:52:15;9.60;;;5.40;;
50309;SDS011;36207;51.850;21.698;2023-06-24T12:54:41;11.10;;;5.40;;
50309;SDS011;36207;51.850;21.698;2023-06-24T12:57:08;7.50;;;5.40;;
50309;SDS011;36207;51.850;21.698;2023-06-24T12:59:34;9.00;;;5.50;;
50309;SDS011;36207;51.850;21.698;2023-06-24T13:02:00;11.20;;;6.00;;
50309;SDS011;36207;51.850;21.698;2023-06-24T13:04:27;7.20;;;5.50;;
50309;SDS011;36207;51.850;21.698;2023-06-24T13:06:53;8.70;;;5.50;;
50309;SDS011;36207;51.850;21.698;2023-06-24T13:09:19;11.70;;;5.40;;
50309;SDS011;36207;51.850;21.698;2023-06-24T13:11:45;8.60;;;5.70;;
50309;SDS011;36207;51.850;21.698;2023-06-24T13:14:12;9.90;;;5.70;;
50309;SDS011;36207;51.850;21.698;2023-06-24T13:16:39;6.90;;;5.30;;
50309;SDS011;36207;51.850;21.698;2023-06-24T13:19:05;8.80;;;5.90;;
50309;SDS011;36207;51.850;21.698;2023-06-24T13:21:31;7.90;;;5.60;;
50309;SDS011;36207;51.850;21.698;2023-06-24T13:23:57;9.00;;;5.80;;
50309;SDS011;36207;51.850;21.698;2023-06-24T13:26:23;7.60;;;5.90;;
50309;SDS011;36207;51.850;21.698;2023-06-24T13:28:50;9.40;;;6.30;;
50309;SDS011;36207;51.850;21.698;2023-06-24T13:31:18;7.70;;;5.90;;
50309;SDS011;36207;51.850;21.698;2023-06-24T13:33:44;9.10;;;5.80;;
50309;SDS011;36207;51.850;21.698;2023-06-24T13:36:13;8.30;;;6.10;;
50309;SDS011;36207;51.850;21.698;2023-06-24T13:39:04;11.30;;;6.30;;
50309;SDS011;36207;51.850;21.698;2023-06-24T13:41:32;9.60;;;6.00;;
50309;SDS011;36207;51.850;21.698;2023-06-24T13:43:59;9.20;;;6.30;;
50309;SDS011;36207;51.850;21.698;2023-06-24T13:46:26;10.40;;;6.20;;
50309;SDS011;36207;51.850;21.698;2023-06-24T13:48:53;10.10;;;6.20;;
50309;SDS011;36207;51.850;21.698;2023-06-24T13:51:19;9.40;;;6.10;;
50309;SDS011;36207;51.850;21.698;2023-06-24T13:53:49;9.40;;;6.40;;
50309;SDS011;36207;51.850;21.698;2023-06-24T13:56:17;9.50;;;6.20;;
50309;SDS011;36207;51.850;21.698;2023-06-24T13:58:44;10.20;;;6.20;;
50309;SDS011;36207;51.850;21.698;2023-06-24T14:01:11;9.10;;;6.20;;
50309;SDS011;36207;51.850;21.698;2023-06-24T14:03:37;14.00;;;6.30;;
50309;SDS011;36207;51.850;21.698;2023-06-24T14:06:04;10.60;;;6.40;;
50309;SDS011;36207;51.850;21.698;2023-06-24T14:08:31;9.10;;;6.20;;
50309;SDS011;36207;51.850;21.698;2023-06-24T14:10:58;10.70;;;6.30;;
50309;SDS011;36207;51.850;21.698;2023-06-24T14:13:25;8.40;;;6.20;;
50309;SDS011;36207;51.850;21.698;2023-06-24T14:15:52;11.20;;;6.30;;
50309;SDS011;36207;51.850;21.698;2023-06-24T14:18:22;9.90;;;6.30;;
50309;SDS011;36207;51.850;21.698;2023-06-24T14:20:49;7.90;;;5.90;;
50309;SDS011;36207;51.850;21.698;2023-06-24T14:23:15;10.30;;;6.30;;
50309;SDS011;36207;51.850;21.698;2023-06-24T14:25:41;10.00;;;6.30;;
50309;SDS011;36207;51.850;21.698;2023-06-24T14:28:07;9.00;;;5.80;;
50309;SDS011;36207;51.850;21.698;2023-06-24T14:30:33;8.50;;;5.90;;
50309;SDS011;36207;51.850;21.698;2023-06-24T14:33:00;11.80;;;5.80;;
50309;SDS011;36207;51.850;21.698;2023-06-24T14:35:27;9.60;;;5.90;;
50309;SDS011;36207;51.850;21.698;2023-06-24T14:37:53;9.10;;;5.80;;
50309;SDS011;36207;51.850;21.698;2023-06-24T14:40:19;11.40;;;6.20;;
50309;SDS011;36207;51.850;21.698;2023-06-24T14:42:45;11.20;;;6.00;;
50309;SDS011;36207;51.850;21.698;2023-06-24T14:45:11;9.20;;;5.80;;
50309;SDS011;36207;51.850;21.698;2023-06-24T14:47:37;9.00;;;5.80;;
50309;SDS011;36207;51.850;21.698;2023-06-24T14:50:03;8.00;;;5.70;;
50309;SDS011;36207;51.850;21.698;2023-06-24T14:52:29;9.50;;;5.80;;
50309;SDS011;36207;51.850;21.698;2023-06-24T14:54:56;11.10;;;5.60;;
50309;SDS011;36207;51.850;21.698;2023-06-24T14:57:22;10.70;;;5.70;;
50309;SDS011;36207;51.850;21.698;2023-06-24T14:59:49;11.40;;;5.90;;